Christmas Lake Village, Indiana
Current Conditions -  °F | °C
As of 8:55 AM on Friday 19 Dec 2014 (Local Time) from KHNB Reporting Station
Clear Clear  
Wind Chill: 22°   Ceiling: Unl
Heat Index: 28°   Visibility: 7mi
Dew Point: 21°   Wind: 6mph
Humidity: 74%   Direction: 40°NE
Pressure: 30.34"   Gusts: NA
Location:  38.0869°N, 86.8913°W
Report Text: KHNB 191455Z AUTO 04005KT 7SM CLR M02/M06 A3034 RMK AO1 52020
Loading
Personal Weather Stations






























Interactive Weather Map New forecast layout! Learn more

10-Day Weather Forecast

Advertisements
Track Severe Weather on mobile